sensor_id;sensor_type;location;lat;lon;timestamp;P1;durP1;ratioP1;P2;durP2;ratioP2
75898;SDS011;64576;50.460;4.866;2023-04-01T00:00:28;10.68;;;2.72;;
75898;SDS011;64576;50.460;4.866;2023-04-01T00:02:53;10.13;;;2.90;;
75898;SDS011;64576;50.460;4.866;2023-04-01T00:05:19;24.20;;;4.40;;
75898;SDS011;64576;50.460;4.866;2023-04-01T00:07:45;8.88;;;3.95;;
75898;SDS011;64576;50.460;4.866;2023-04-01T00:10:11;17.92;;;3.55;;
75898;SDS011;64576;50.460;4.866;2023-04-01T00:12:37;7.90;;;1.65;;
75898;SDS011;64576;50.460;4.866;2023-04-01T00:15:04;9.77;;;2.15;;
75898;SDS011;64576;50.460;4.866;2023-04-01T00:17:33;9.73;;;3.28;;
75898;SDS011;64576;50.460;4.866;2023-04-01T00:19:58;13.32;;;2.10;;
75898;SDS011;64576;50.460;4.866;2023-04-01T00:22:24;5.85;;;2.60;;
75898;SDS011;64576;50.460;4.866;2023-04-01T00:24:51;6.55;;;2.00;;
75898;SDS011;64576;50.460;4.866;2023-04-01T00:27:16;9.93;;;2.30;;
75898;SDS011;64576;50.460;4.866;2023-04-01T00:29:42;11.38;;;2.40;;
75898;SDS011;64576;50.460;4.866;2023-04-01T00:32:08;9.85;;;1.90;;
75898;SDS011;64576;50.460;4.866;2023-04-01T00:34:34;4.43;;;1.40;;
75898;SDS011;64576;50.460;4.866;2023-04-01T00:36:59;3.50;;;1.25;;
75898;SDS011;64576;50.460;4.866;2023-04-01T00:39:25;6.93;;;1.83;;
75898;SDS011;64576;50.460;4.866;2023-04-01T00:41:53;6.63;;;1.55;;
75898;SDS011;64576;50.460;4.866;2023-04-01T00:46:46;17.33;;;2.17;;
75898;SDS011;64576;50.460;4.866;2023-04-01T00:49:12;4.15;;;1.00;;
75898;SDS011;64576;50.460;4.866;2023-04-01T00:51:38;6.13;;;1.55;;
75898;SDS011;64576;50.460;4.866;2023-04-01T00:54:05;5.35;;;1.48;;
75898;SDS011;64576;50.460;4.866;2023-04-01T00:56:32;9.98;;;1.60;;
75898;SDS011;64576;50.460;4.866;2023-04-01T00:59:03;8.15;;;1.25;;
75898;SDS011;64576;50.460;4.866;2023-04-01T01:01:33;5.75;;;1.75;;
75898;SDS011;64576;50.460;4.866;2023-04-01T01:04:00;6.50;;;2.33;;
75898;SDS011;64576;50.460;4.866;2023-04-01T01:06:34;6.15;;;1.65;;
75898;SDS011;64576;50.460;4.866;2023-04-01T01:09:25;10.35;;;2.85;;
75898;SDS011;64576;50.460;4.866;2023-04-01T01:12:07;13.50;;;2.35;;
75898;SDS011;64576;50.460;4.866;2023-04-01T01:17:36;6.88;;;1.88;;
75898;SDS011;64576;50.460;4.866;2023-04-01T01:23:19;4.28;;;1.98;;
75898;SDS011;64576;50.460;4.866;2023-04-01T01:26:14;3.67;;;1.85;;
75898;SDS011;64576;50.460;4.866;2023-04-01T01:29:07;6.18;;;1.90;;
75898;SDS011;64576;50.460;4.866;2023-04-01T01:31:34;6.93;;;1.35;;
75898;SDS011;64576;50.460;4.866;2023-04-01T01:34:13;11.18;;;2.13;;
75898;SDS011;64576;50.460;4.866;2023-04-01T01:36:40;4.43;;;1.63;;
75898;SDS011;64576;50.460;4.866;2023-04-01T01:39:10;3.85;;;2.05;;
75898;SDS011;64576;50.460;4.866;2023-04-01T01:41:38;6.78;;;1.40;;
75898;SDS011;64576;50.460;4.866;2023-04-01T01:44:08;8.68;;;2.20;;
75898;SDS011;64576;50.460;4.866;2023-04-01T01:46:37;5.45;;;1.70;;
75898;SDS011;64576;50.460;4.866;2023-04-01T01:49:04;6.70;;;1.52;;
75898;SDS011;64576;50.460;4.866;2023-04-01T01:51:32;5.53;;;1.40;;
75898;SDS011;64576;50.460;4.866;2023-04-01T01:53:57;3.10;;;1.33;;
75898;SDS011;64576;50.460;4.866;2023-04-01T01:56:23;9.07;;;2.60;;
75898;SDS011;64576;50.460;4.866;2023-04-01T01:58:53;4.60;;;2.00;;
75898;SDS011;64576;50.460;4.866;2023-04-01T02:01:24;2.78;;;1.33;;
75898;SDS011;64576;50.460;4.866;2023-04-01T02:03:55;7.22;;;1.05;;
75898;SDS011;64576;50.460;4.866;2023-04-01T02:06:23;4.15;;;1.40;;
75898;SDS011;64576;50.460;4.866;2023-04-01T02:08:52;5.28;;;1.30;;
75898;SDS011;64576;50.460;4.866;2023-04-01T02:11:26;5.30;;;1.00;;
75898;SDS011;64576;50.460;4.866;2023-04-01T02:13:56;4.00;;;1.48;;
75898;SDS011;64576;50.460;4.866;2023-04-01T02:16:28;1.80;;;0.98;;
75898;SDS011;64576;50.460;4.866;2023-04-01T02:18:57;5.00;;;1.35;;
75898;SDS011;64576;50.460;4.866;2023-04-01T02:21:26;3.25;;;0.98;;
75898;SDS011;64576;50.460;4.866;2023-04-01T02:23:55;3.78;;;1.40;;
75898;SDS011;64576;50.460;4.866;2023-04-01T02:26:23;2.92;;;1.10;;
75898;SDS011;64576;50.460;4.866;2023-04-01T02:28:50;4.63;;;1.35;;
75898;SDS011;64576;50.460;4.866;2023-04-01T02:31:17;3.33;;;1.00;;
75898;SDS011;64576;50.460;4.866;2023-04-01T02:33:43;8.05;;;1.23;;
75898;SDS011;64576;50.460;4.866;2023-04-01T02:36:10;2.47;;;0.52;;
75898;SDS011;64576;50.460;4.866;2023-04-01T02:38:39;1.70;;;0.88;;
75898;SDS011;64576;50.460;4.866;2023-04-01T02:41:05;6.03;;;1.20;;
75898;SDS011;64576;50.460;4.866;2023-04-01T02:43:31;1.60;;;0.68;;
75898;SDS011;64576;50.460;4.866;2023-04-01T02:45:56;5.38;;;0.98;;
75898;SDS011;64576;50.460;4.866;2023-04-01T02:48:22;2.25;;;1.00;;
75898;SDS011;64576;50.460;4.866;2023-04-01T02:50:47;1.52;;;0.65;;
75898;SDS011;64576;50.460;4.866;2023-04-01T02:53:13;2.25;;;1.10;;
75898;SDS011;64576;50.460;4.866;2023-04-01T02:55:39;3.17;;;0.70;;
75898;SDS011;64576;50.460;4.866;2023-04-01T02:58:04;2.15;;;0.88;;
75898;SDS011;64576;50.460;4.866;2023-04-01T03:00:30;2.47;;;0.60;;
75898;SDS011;64576;50.460;4.866;2023-04-01T03:02:55;3.22;;;1.10;;
75898;SDS011;64576;50.460;4.866;2023-04-01T03:05:21;0.77;;;0.55;;
75898;SDS011;64576;50.460;4.866;2023-04-01T03:07:47;2.83;;;1.40;;
75898;SDS011;64576;50.460;4.866;2023-04-01T03:10:13;6.65;;;1.02;;
75898;SDS011;64576;50.460;4.866;2023-04-01T03:12:38;5.43;;;1.70;;
75898;SDS011;64576;50.460;4.866;2023-04-01T03:15:04;5.40;;;1.80;;
75898;SDS011;64576;50.460;4.866;2023-04-01T03:17:30;7.60;;;2.50;;
75898;SDS011;64576;50.460;4.866;2023-04-01T03:19:55;7.72;;;2.67;;
75898;SDS011;64576;50.460;4.866;2023-04-01T03:22:21;7.75;;;3.95;;
75898;SDS011;64576;50.460;4.866;2023-04-01T03:24:47;10.43;;;5.13;;
75898;SDS011;64576;50.460;4.866;2023-04-01T03:27:13;14.27;;;5.57;;
75898;SDS011;64576;50.460;4.866;2023-04-01T03:29:38;11.95;;;5.00;;
75898;SDS011;64576;50.460;4.866;2023-04-01T03:32:04;10.95;;;4.43;;
75898;SDS011;64576;50.460;4.866;2023-04-01T03:34:30;9.45;;;4.00;;
75898;SDS011;64576;50.460;4.866;2023-04-01T03:36:55;13.77;;;3.13;;
75898;SDS011;64576;50.460;4.866;2023-04-01T03:39:21;10.20;;;3.17;;
75898;SDS011;64576;50.460;4.866;2023-04-01T03:41:47;11.60;;;3.30;;
75898;SDS011;64576;50.460;4.866;2023-04-01T03:44:12;10.95;;;2.60;;
75898;SDS011;64576;50.460;4.866;2023-04-01T03:46:38;8.73;;;3.67;;
75898;SDS011;64576;50.460;4.866;2023-04-01T03:49:06;6.00;;;2.20;;
75898;SDS011;64576;50.460;4.866;2023-04-01T03:51:40;8.00;;;2.75;;
75898;SDS011;64576;50.460;4.866;2023-04-01T03:54:07;13.80;;;2.90;;
75898;SDS011;64576;50.460;4.866;2023-04-01T03:56:32;7.50;;;3.85;;
75898;SDS011;64576;50.460;4.866;2023-04-01T03:58:58;9.80;;;3.63;;
75898;SDS011;64576;50.460;4.866;2023-04-01T04:01:27;11.20;;;3.65;;
75898;SDS011;64576;50.460;4.866;2023-04-01T04:03:52;8.88;;;3.80;;
75898;SDS011;64576;50.460;4.866;2023-04-01T04:06:18;8.55;;;3.47;;
75898;SDS011;64576;50.460;4.866;2023-04-01T04:08:44;11.73;;;3.83;;
75898;SDS011;64576;50.460;4.866;2023-04-01T04:11:09;15.80;;;5.63;;
75898;SDS011;64576;50.460;4.866;2023-04-01T04:13:35;16.33;;;7.07;;
75898;SDS011;64576;50.460;4.866;2023-04-01T04:16:01;15.68;;;5.63;;
75898;SDS011;64576;50.460;4.866;2023-04-01T04:18:27;15.30;;;6.78;;
75898;SDS011;64576;50.460;4.866;2023-04-01T04:20:52;16.35;;;8.18;;
75898;SDS011;64576;50.460;4.866;2023-04-01T04:23:18;21.52;;;8.82;;
75898;SDS011;64576;50.460;4.866;2023-04-01T04:25:57;16.58;;;6.65;;
75898;SDS011;64576;50.460;4.866;2023-04-01T04:28:24;21.88;;;10.77;;
75898;SDS011;64576;50.460;4.866;2023-04-01T04:30:51;20.60;;;8.02;;
75898;SDS011;64576;50.460;4.866;2023-04-01T04:33:16;27.27;;;11.15;;
75898;SDS011;64576;50.460;4.866;2023-04-01T04:35:42;21.88;;;8.10;;
75898;SDS011;64576;50.460;4.866;2023-04-01T04:38:07;20.55;;;9.30;;
75898;SDS011;64576;50.460;4.866;2023-04-01T04:40:33;29.48;;;8.85;;
75898;SDS011;64576;50.460;4.866;2023-04-01T04:43:00;25.55;;;8.10;;
75898;SDS011;64576;50.460;4.866;2023-04-01T04:45:25;21.98;;;8.85;;
75898;SDS011;64576;50.460;4.866;2023-04-01T04:47:51;21.10;;;8.32;;
75898;SDS011;64576;50.460;4.866;2023-04-01T04:50:16;20.85;;;8.70;;
75898;SDS011;64576;50.460;4.866;2023-04-01T04:52:41;18.35;;;7.82;;
75898;SDS011;64576;50.460;4.866;2023-04-01T04:55:07;20.90;;;8.70;;
75898;SDS011;64576;50.460;4.866;2023-04-01T04:57:32;22.25;;;9.55;;
75898;SDS011;64576;50.460;4.866;2023-04-01T04:59:58;22.83;;;8.95;;
75898;SDS011;64576;50.460;4.866;2023-04-01T05:02:23;21.08;;;8.95;;
75898;SDS011;64576;50.460;4.866;2023-04-01T05:04:48;26.50;;;11.30;;
75898;SDS011;64576;50.460;4.866;2023-04-01T05:07:14;24.83;;;8.88;;
75898;SDS011;64576;50.460;4.866;2023-04-01T05:09:39;21.88;;;9.82;;
75898;SDS011;64576;50.460;4.866;2023-04-01T05:12:05;25.15;;;8.43;;
75898;SDS011;64576;50.460;4.866;2023-04-01T05:14:30;25.92;;;10.25;;
75898;SDS011;64576;50.460;4.866;2023-04-01T05:16:55;28.20;;;10.70;;
75898;SDS011;64576;50.460;4.866;2023-04-01T05:19:21;30.42;;;11.25;;
75898;SDS011;64576;50.460;4.866;2023-04-01T05:21:46;24.17;;;10.90;;
75898;SDS011;64576;50.460;4.866;2023-04-01T05:24:12;30.88;;;11.80;;
75898;SDS011;64576;50.460;4.866;2023-04-01T05:26:37;32.00;;;11.95;;
75898;SDS011;64576;50.460;4.866;2023-04-01T05:29:03;31.05;;;13.57;;
75898;SDS011;64576;50.460;4.866;2023-04-01T05:31:29;36.17;;;14.68;;
75898;SDS011;64576;50.460;4.866;2023-04-01T05:33:55;36.90;;;15.30;;
75898;SDS011;64576;50.460;4.866;2023-04-01T05:36:20;39.22;;;14.10;;
75898;SDS011;64576;50.460;4.866;2023-04-01T05:38:46;39.67;;;15.93;;
75898;SDS011;64576;50.460;4.866;2023-04-01T05:41:12;33.38;;;12.93;;
75898;SDS011;64576;50.460;4.866;2023-04-01T05:43:39;36.35;;;15.43;;
75898;SDS011;64576;50.460;4.866;2023-04-01T05:46:05;33.22;;;12.85;;
75898;SDS011;64576;50.460;4.866;2023-04-01T05:48:32;26.83;;;12.52;;
75898;SDS011;64576;50.460;4.866;2023-04-01T05:50:59;33.03;;;11.60;;
75898;SDS011;64576;50.460;4.866;2023-04-01T05:53:25;40.13;;;16.15;;
75898;SDS011;64576;50.460;4.866;2023-04-01T05:55:50;41.60;;;16.17;;
75898;SDS011;64576;50.460;4.866;2023-04-01T05:58:16;38.92;;;13.70;;
75898;SDS011;64576;50.460;4.866;2023-04-01T06:00:41;36.45;;;16.15;;
75898;SDS011;64576;50.460;4.866;2023-04-01T06:03:06;33.40;;;14.93;;
75898;SDS011;64576;50.460;4.866;2023-04-01T06:05:42;31.88;;;13.38;;
75898;SDS011;64576;50.460;4.866;2023-04-01T06:08:15;26.50;;;11.85;;
75898;SDS011;64576;50.460;4.866;2023-04-01T06:13:30;34.35;;;13.00;;
75898;SDS011;64576;50.460;4.866;2023-04-01T06:18:58;34.08;;;14.77;;
75898;SDS011;64576;50.460;4.866;2023-04-01T06:40:37;22.25;;;10.55;;
75898;SDS011;64576;50.460;4.866;2023-04-01T06:43:16;24.52;;;9.77;;
75898;SDS011;64576;50.460;4.866;2023-04-01T06:46:23;32.45;;;11.27;;
75898;SDS011;64576;50.460;4.866;2023-04-01T06:54:42;27.25;;;12.43;;
75898;SDS011;64576;50.460;4.866;2023-04-01T06:59:52;28.33;;;13.05;;
75898;SDS011;64576;50.460;4.866;2023-04-01T07:05:06;32.45;;;12.15;;
75898;SDS011;64576;50.460;4.866;2023-04-01T07:10:02;30.40;;;13.57;;
75898;SDS011;64576;50.460;4.866;2023-04-01T07:12:39;25.52;;;12.48;;
75898;SDS011;64576;50.460;4.866;2023-04-01T07:15:19;31.33;;;13.40;;
75898;SDS011;64576;50.460;4.866;2023-04-01T07:17:53;31.05;;;13.52;;
75898;SDS011;64576;50.460;4.866;2023-04-01T07:23:27;26.40;;;12.32;;
75898;SDS011;64576;50.460;4.866;2023-04-01T07:26:25;28.52;;;13.57;;
75898;SDS011;64576;50.460;4.866;2023-04-01T07:28:51;25.50;;;12.18;;
75898;SDS011;64576;50.460;4.866;2023-04-01T07:36:47;16.48;;;7.47;;
75898;SDS011;64576;50.460;4.866;2023-04-01T08:18:06;18.15;;;10.18;;
75898;SDS011;64576;50.460;4.866;2023-04-01T08:20:59;16.50;;;8.52;;
75898;SDS011;64576;50.460;4.866;2023-04-01T08:23:40;21.52;;;10.05;;
75898;SDS011;64576;50.460;4.866;2023-04-01T08:26:44;24.40;;;10.30;;
75898;SDS011;64576;50.460;4.866;2023-04-01T08:29:11;19.20;;;8.80;;
75898;SDS011;64576;50.460;4.866;2023-04-01T08:31:48;15.88;;;6.80;;
75898;SDS011;64576;50.460;4.866;2023-04-01T08:34:24;11.30;;;5.88;;
75898;SDS011;64576;50.460;4.866;2023-04-01T08:36:59;13.50;;;5.82;;
75898;SDS011;64576;50.460;4.866;2023-04-01T08:39:36;11.10;;;5.47;;
75898;SDS011;64576;50.460;4.866;2023-04-01T08:56:12;8.73;;;4.65;;
75898;SDS011;64576;50.460;4.866;2023-04-01T09:01:17;11.60;;;4.38;;
75898;SDS011;64576;50.460;4.866;2023-04-01T09:03:51;10.82;;;4.53;;
75898;SDS011;64576;50.460;4.866;2023-04-01T09:06:31;8.40;;;4.38;;
75898;SDS011;64576;50.460;4.866;2023-04-01T09:26:18;15.25;;;7.97;;
75898;SDS011;64576;50.460;4.866;2023-04-01T09:31:47;17.88;;;7.53;;
75898;SDS011;64576;50.460;4.866;2023-04-01T09:39:47;11.07;;;5.82;;
75898;SDS011;64576;50.460;4.866;2023-04-01T09:42:33;11.80;;;4.82;;
75898;SDS011;64576;50.460;4.866;2023-04-01T10:21:16;3.55;;;1.90;;
75898;SDS011;64576;50.460;4.866;2023-04-01T10:23:59;4.55;;;1.75;;
75898;SDS011;64576;50.460;4.866;2023-04-01T10:29:18;3.92;;;2.05;;
75898;SDS011;64576;50.460;4.866;2023-04-01T10:48:08;4.85;;;1.98;;
75898;SDS011;64576;50.460;4.866;2023-04-01T11:28:07;5.30;;;2.55;;
75898;SDS011;64576;50.460;4.866;2023-04-01T11:33:36;6.20;;;2.85;;
75898;SDS011;64576;50.460;4.866;2023-04-01T11:36:31;6.88;;;3.53;;
75898;SDS011;64576;50.460;4.866;2023-04-01T11:44:28;7.32;;;2.78;;
75898;SDS011;64576;50.460;4.866;2023-04-01T11:52:26;7.45;;;3.80;;
75898;SDS011;64576;50.460;4.866;2023-04-01T12:06:57;7.22;;;3.58;;
75898;SDS011;64576;50.460;4.866;2023-04-01T12:29:19;5.88;;;2.75;;
75898;SDS011;64576;50.460;4.866;2023-04-01T12:34:43;6.10;;;2.85;;
75898;SDS011;64576;50.460;4.866;2023-04-01T12:37:27;4.63;;;2.28;;
75898;SDS011;64576;50.460;4.866;2023-04-01T12:42:59;4.82;;;2.78;;
75898;SDS011;64576;50.460;4.866;2023-04-01T12:46:30;5.68;;;2.67;;
75898;SDS011;64576;50.460;4.866;2023-04-01T12:48:31;5.82;;;2.95;;
75898;SDS011;64576;50.460;4.866;2023-04-01T12:51:19;7.47;;;2.97;;
75898;SDS011;64576;50.460;4.866;2023-04-01T13:07:34;5.90;;;2.67;;
75898;SDS011;64576;50.460;4.866;2023-04-01T13:18:27;3.92;;;1.83;;
75898;SDS011;64576;50.460;4.866;2023-04-01T13:26:53;5.13;;;1.98;;
75898;SDS011;64576;50.460;4.866;2023-04-01T13:29:21;4.78;;;1.90;;
75898;SDS011;64576;50.460;4.866;2023-04-01T13:32:00;4.55;;;1.83;;
75898;SDS011;64576;50.460;4.866;2023-04-01T13:37:35;2.45;;;1.23;;
75898;SDS011;64576;50.460;4.866;2023-04-01T13:40:36;4.03;;;2.15;;
75898;SDS011;64576;50.460;4.866;2023-04-01T13:52:02;2.80;;;1.80;;
75898;SDS011;64576;50.460;4.866;2023-04-01T13:55:11;2.83;;;1.30;;
75898;SDS011;64576;50.460;4.866;2023-04-01T14:08:55;4.95;;;2.08;;
75898;SDS011;64576;50.460;4.866;2023-04-01T14:14:57;4.50;;;2.00;;
75898;SDS011;64576;50.460;4.866;2023-04-01T14:17:31;6.07;;;2.05;;
75898;SDS011;64576;50.460;4.866;2023-04-01T14:20:27;4.75;;;2.10;;
75898;SDS011;64576;50.460;4.866;2023-04-01T14:23:22;6.78;;;2.35;;
75898;SDS011;64576;50.460;4.866;2023-04-01T14:26:19;6.70;;;3.13;;
75898;SDS011;64576;50.460;4.866;2023-04-01T14:37:32;6.55;;;2.60;;
75898;SDS011;64576;50.460;4.866;2023-04-01T14:43:26;7.60;;;2.83;;
75898;SDS011;64576;50.460;4.866;2023-04-01T14:52:24;6.20;;;2.78;;
75898;SDS011;64576;50.460;4.866;2023-04-01T14:54:53;8.13;;;3.17;;
75898;SDS011;64576;50.460;4.866;2023-04-01T14:57:29;8.63;;;3.58;;
75898;SDS011;64576;50.460;4.866;2023-04-01T15:13:48;7.47;;;3.90;;
75898;SDS011;64576;50.460;4.866;2023-04-01T15:16:34;11.43;;;4.63;;
75898;SDS011;64576;50.460;4.866;2023-04-01T15:19:23;9.27;;;4.55;;
75898;SDS011;64576;50.460;4.866;2023-04-01T15:22:20;9.52;;;5.25;;
75898;SDS011;64576;50.460;4.866;2023-04-01T15:27:50;7.95;;;3.63;;
75898;SDS011;64576;50.460;4.866;2023-04-01T15:30:29;8.57;;;3.45;;
75898;SDS011;64576;50.460;4.866;2023-04-01T15:41:43;6.03;;;2.95;;
75898;SDS011;64576;50.460;4.866;2023-04-01T15:44:39;6.18;;;2.58;;
75898;SDS011;64576;50.460;4.866;2023-04-01T15:58:21;7.55;;;3.17;;
75898;SDS011;64576;50.460;4.866;2023-04-01T16:01:17;6.82;;;2.67;;
75898;SDS011;64576;50.460;4.866;2023-04-01T16:04:05;4.65;;;2.55;;
75898;SDS011;64576;50.460;4.866;2023-04-01T16:06:42;4.90;;;2.05;;
75898;SDS011;64576;50.460;4.866;2023-04-01T16:09:14;5.30;;;2.95;;
75898;SDS011;64576;50.460;4.866;2023-04-01T16:12:07;5.07;;;2.40;;
75898;SDS011;64576;50.460;4.866;2023-04-01T16:21:08;5.28;;;2.28;;
75898;SDS011;64576;50.460;4.866;2023-04-01T16:27:00;3.05;;;1.25;;
75898;SDS011;64576;50.460;4.866;2023-04-01T16:38:08;2.72;;;1.40;;
75898;SDS011;64576;50.460;4.866;2023-04-01T16:46:18;4.03;;;1.60;;
75898;SDS011;64576;50.460;4.866;2023-04-01T16:49:13;4.20;;;1.92;;
75898;SDS011;64576;50.460;4.866;2023-04-01T16:59:43;3.22;;;1.63;;
75898;SDS011;64576;50.460;4.866;2023-04-01T17:02:16;6.50;;;2.28;;
75898;SDS011;64576;50.460;4.866;2023-04-01T17:15:39;4.97;;;2.40;;
75898;SDS011;64576;50.460;4.866;2023-04-01T17:32:35;4.53;;;2.28;;
75898;SDS011;64576;50.460;4.866;2023-04-01T17:35:22;4.43;;;2.15;;
75898;SDS011;64576;50.460;4.866;2023-04-01T17:40:31;3.42;;;1.63;;
75898;SDS011;64576;50.460;4.866;2023-04-01T17:46:23;5.40;;;2.50;;
75898;SDS011;64576;50.460;4.866;2023-04-01T17:49:00;4.00;;;2.03;;
75898;SDS011;64576;50.460;4.866;2023-04-01T17:51:52;5.20;;;2.47;;
75898;SDS011;64576;50.460;4.866;2023-04-01T17:54:36;5.85;;;3.22;;
75898;SDS011;64576;50.460;4.866;2023-04-01T18:08:08;6.35;;;2.90;;
75898;SDS011;64576;50.460;4.866;2023-04-01T18:26:38;7.22;;;3.95;;
75898;SDS011;64576;50.460;4.866;2023-04-01T18:29:18;8.10;;;4.35;;
75898;SDS011;64576;50.460;4.866;2023-04-01T18:38:03;9.07;;;4.28;;
75898;SDS011;64576;50.460;4.866;2023-04-01T18:40:43;7.10;;;3.08;;
75898;SDS011;64576;50.460;4.866;2023-04-01T18:43:36;10.20;;;4.25;;
75898;SDS011;64576;50.460;4.866;2023-04-01T18:48:48;11.25;;;4.70;;
75898;SDS011;64576;50.460;4.866;2023-04-01T18:54:32;8.02;;;3.42;;
75898;SDS011;64576;50.460;4.866;2023-04-01T18:59:39;9.23;;;4.45;;
75898;SDS011;64576;50.460;4.866;2023-04-01T19:02:15;12.23;;;5.75;;
75898;SDS011;64576;50.460;4.866;2023-04-01T19:04:45;11.88;;;5.93;;
75898;SDS011;64576;50.460;4.866;2023-04-01T19:07:34;11.75;;;5.80;;
75898;SDS011;64576;50.460;4.866;2023-04-01T19:29:32;13.30;;;6.60;;
75898;SDS011;64576;50.460;4.866;2023-04-01T19:53:56;14.65;;;6.85;;
75898;SDS011;64576;50.460;4.866;2023-04-01T20:04:28;17.55;;;8.38;;
75898;SDS011;64576;50.460;4.866;2023-04-01T20:07:00;18.05;;;7.78;;
75898;SDS011;64576;50.460;4.866;2023-04-01T20:15:00;17.75;;;9.10;;
75898;SDS011;64576;50.460;4.866;2023-04-01T20:17:43;16.55;;;7.55;;
75898;SDS011;64576;50.460;4.866;2023-04-01T20:27:46;27.88;;;10.80;;
75898;SDS011;64576;50.460;4.866;2023-04-01T20:33:34;23.60;;;10.82;;
75898;SDS011;64576;50.460;4.866;2023-04-01T20:56:06;17.75;;;9.18;;
75898;SDS011;64576;50.460;4.866;2023-04-01T21:06:59;20.73;;;8.50;;
75898;SDS011;64576;50.460;4.866;2023-04-01T21:24:29;26.15;;;11.40;;
75898;SDS011;64576;50.460;4.866;2023-04-01T21:30:19;21.58;;;9.63;;
75898;SDS011;64576;50.460;4.866;2023-04-01T21:52:10;29.70;;;13.07;;
75898;SDS011;64576;50.460;4.866;2023-04-01T21:57:49;21.27;;;8.85;;
75898;SDS011;64576;50.460;4.866;2023-04-01T22:06:50;23.13;;;9.25;;
75898;SDS011;64576;50.460;4.866;2023-04-01T22:09:25;26.33;;;10.40;;
75898;SDS011;64576;50.460;4.866;2023-04-01T22:19:56;29.10;;;12.48;;
75898;SDS011;64576;50.460;4.866;2023-04-01T22:25:31;27.88;;;11.68;;
75898;SDS011;64576;50.460;4.866;2023-04-01T22:28:29;30.83;;;11.52;;
75898;SDS011;64576;50.460;4.866;2023-04-01T22:30:59;27.40;;;11.23;;
75898;SDS011;64576;50.460;4.866;2023-04-01T22:33:29;27.30;;;11.30;;
75898;SDS011;64576;50.460;4.866;2023-04-01T22:38:38;36.42;;;13.48;;
75898;SDS011;64576;50.460;4.866;2023-04-01T22:41:47;27.38;;;10.80;;
75898;SDS011;64576;50.460;4.866;2023-04-01T22:44:51;30.55;;;12.98;;
75898;SDS011;64576;50.460;4.866;2023-04-01T22:47:28;29.27;;;11.07;;
75898;SDS011;64576;50.460;4.866;2023-04-01T22:50:39;37.90;;;12.85;;
75898;SDS011;64576;50.460;4.866;2023-04-01T22:52:47;35.85;;;15.93;;
75898;SDS011;64576;50.460;4.866;2023-04-01T22:55:17;28.15;;;11.43;;
75898;SDS011;64576;50.460;4.866;2023-04-01T22:58:00;30.60;;;13.25;;
75898;SDS011;64576;50.460;4.866;2023-04-01T23:00:43;34.60;;;14.27;;
75898;SDS011;64576;50.460;4.866;2023-04-01T23:03:17;30.23;;;11.02;;
75898;SDS011;64576;50.460;4.866;2023-04-01T23:05:50;34.25;;;12.93;;
75898;SDS011;64576;50.460;4.866;2023-04-01T23:08:41;31.25;;;12.70;;
75898;SDS011;64576;50.460;4.866;2023-04-01T23:11:35;32.38;;;11.60;;
75898;SDS011;64576;50.460;4.866;2023-04-01T23:16:51;24.73;;;9.10;;
75898;SDS011;64576;50.460;4.866;2023-04-01T23:19:52;30.67;;;10.65;;
75898;SDS011;64576;50.460;4.866;2023-04-01T23:22:16;22.35;;;8.73;;
75898;SDS011;64576;50.460;4.866;2023-04-01T23:25:17;24.88;;;10.23;;
75898;SDS011;64576;50.460;4.866;2023-04-01T23:33:38;28.58;;;10.75;;
75898;SDS011;64576;50.460;4.866;2023-04-01T23:36:10;100.43;;;15.23;;
75898;SDS011;64576;50.460;4.866;2023-04-01T23:38:39;169.73;;;20.65;;
75898;SDS011;64576;50.460;4.866;2023-04-01T23:41:06;201.05;;;23.67;;
75898;SDS011;64576;50.460;4.866;2023-04-01T23:43:42;56.13;;;12.23;;
75898;SDS011;64576;50.460;4.866;2023-04-01T23:46:10;102.07;;;17.65;;
75898;SDS011;64576;50.460;4.866;2023-04-01T23:48:41;32.42;;;10.80;;
75898;SDS011;64576;50.460;4.866;2023-04-01T23:51:28;38.58;;;13.30;;
75898;SDS011;64576;50.460;4.866;2023-04-01T23:54:02;37.97;;;11.27;;
75898;SDS011;64576;50.460;4.866;2023-04-01T23:56:40;30.48;;;10.13;;
75898;SDS011;64576;50.460;4.866;2023-04-01T23:59:50;28.05;;;9.18;;
